Time;durP1;ratioP1;P1;durP2;ratioP2;P2;SDS_P1;SDS_P2;PMS_P1;PMS_P2;Temp;Humidity;BMP_temperature;BMP_pressure;BME280_temperature;BME280_humidity;BME280_pressure;Samples;Min_cycle;Max_cycle;Signal;HPM_P1;HPM_P2
2021/12/17 00:00:17;;;;;;;29.65;12.10;;;;;;;10.48;59.84;103294.16;6100840;23;96669;-77
2021/12/17 00:03:09;;;;;;;35.95;11.63;;;;;;;10.89;58.50;103288.19;6100168;23;97373;-77
2021/12/17 00:06:04;;;;;;;38.67;12.82;;;;;;;10.87;58.11;103297.88;6097616;23;97878;-76
2021/12/17 00:08:30;;;;;;;32.00;11.50;;;;;;;10.53;58.35;103295.06;6097750;23;98865;-75
2021/12/17 00:10:57;;;;;;;40.58;12.52;;;;;;;10.81;58.48;103308.41;6103904;23;97333;-74
2021/12/17 00:13:26;;;;;;;38.00;12.32;;;;;;;10.86;57.73;103302.25;6108361;23;96605;-75
2021/12/17 00:15:52;;;;;;;31.95;11.70;;;;;;;10.49;58.84;103308.28;6111158;23;98090;-76
2021/12/17 00:18:24;;;;;;;29.30;11.30;;;;;;;10.21;60.66;103313.38;6110797;23;97948;-76
2021/12/17 00:48:35;;;;;;;31.52;11.43;;;;;;;10.71;57.28;103308.38;6104067;23;96529;-76
2021/12/17 00:53:51;;;;;;;33.72;10.30;;;;;;;10.47;59.12;103300.31;6101608;23;97078;-76
2021/12/17 00:56:17;;;;;;;26.73;9.45;;;;;;;10.80;57.48;103307.53;6100231;23;96769;-77
2021/12/17 00:58:44;;;;;;;38.05;10.52;;;;;;;11.00;57.06;103291.72;6099990;23;98148;-75
2021/12/17 01:01:10;;;;;;;29.70;10.70;;;;;;;11.21;56.16;103296.22;6101402;23;99049;-75
2021/12/17 01:03:37;;;;;;;32.65;10.65;;;;;;;10.83;56.88;103293.44;6105928;23;97084;-76
2021/12/17 01:06:04;;;;;;;38.15;11.23;;;;;;;11.06;57.02;103300.56;6106664;23;97004;-76
2021/12/17 01:08:30;;;;;;;37.47;12.20;;;;;;;10.92;57.32;103304.03;6101588;23;96990;-76
2021/12/17 01:11:02;;;;;;;36.42;11.40;;;;;;;11.19;56.73;103301.50;6104321;23;99267;-74
2021/12/17 01:13:28;;;;;;;32.92;10.90;;;;;;;10.83;56.49;103294.31;6094910;23;96675;-77
2021/12/17 01:15:57;;;;;;;35.50;11.32;;;;;;;10.96;56.85;103284.69;6094143;23;96838;-76
2021/12/17 01:18:36;;;;;;;34.10;10.82;;;;;;;10.95;56.51;103288.19;6093582;23;98885;-75
2021/12/17 01:21:25;;;;;;;33.70;11.30;;;;;;;10.57;57.88;103291.56;6096761;23;99239;-75
2021/12/17 01:24:11;;;;;;;35.17;10.48;;;;;;;10.55;58.40;103295.97;6102199;23;97017;-74
2021/12/17 01:38:58;;;;;;;30.50;9.57;;;;;;;11.39;56.12;103296.22;6094036;23;97168;-74
2021/12/17 01:41:24;;;;;;;34.85;9.75;;;;;;;11.07;56.61;103305.00;6093161;23;98379;-76
2021/12/17 01:43:52;;;;;;;34.75;9.57;;;;;;;11.24;56.15;103309.44;6092460;23;100346;-75
2021/12/17 01:46:23;;;;;;;30.85;9.45;;;;;;;11.40;56.21;103314.78;6094852;23;97106;-75
2021/12/17 01:49:01;;;;;;;32.03;9.27;;;;;;;11.42;55.10;103301.53;6096904;23;96729;-75
2021/12/17 02:00:16;;;;;;;34.50;9.10;;;;;;;10.92;57.13;103290.81;6002338;23;96850;-76
2021/12/17 02:02:47;;;;;;;45.13;11.52;;;;;;;11.03;56.80;103291.72;6077422;23;97907;-76
2021/12/17 02:05:15;;;;;;;37.58;9.55;;;;;;;10.35;58.18;103289.69;6096412;23;99191;-75
2021/12/17 02:07:43;;;;;;;33.53;10.88;;;;;;;10.71;57.98;103289.84;6092441;23;97048;-76
2021/12/17 02:11:02;;;;;;;44.35;16.42;;;;;;;11.17;56.65;103287.34;6092488;23;97399;-76
2021/12/17 02:22:01;;;;;;;28.73;9.02;;;;;;;10.72;57.28;103280.16;6092152;23;96772;-75
2021/12/17 02:30:12;;;;;;;32.13;10.10;;;;;;;10.23;58.16;103265.84;6018745;23;96775;-78
2021/12/17 02:32:40;;;;;;;32.00;10.52;;;;;;;10.83;57.42;103269.66;6092470;23;97564;-76
2021/12/17 02:35:23;;;;;;;27.90;9.45;;;;;;;10.97;56.34;103275.84;6092544;23;99006;-76
2021/12/17 02:37:52;;;;;;;36.13;10.02;;;;;;;10.33;57.84;103275.56;6093463;23;98865;-77
2021/12/17 02:45:44;;;;;;;30.90;9.18;;;;;;;10.42;58.35;103280.91;6093194;23;97161;-78
2021/12/17 02:48:12;;;;;;;32.53;8.95;;;;;;;10.71;57.67;103288.97;6094128;23;99116;-76
2021/12/17 02:51:03;;;;;;;32.67;9.23;;;;;;;10.84;57.12;103281.97;6094095;23;97155;-77
2021/12/17 02:53:31;;;;;;;31.52;8.55;;;;;;;10.78;56.78;103282.84;6093729;23;96721;-74
2021/12/17 02:56:00;;;;;;;28.55;8.32;;;;;;;10.66;57.38;103285.44;6090953;23;99291;-75
2021/12/17 02:58:28;;;;;;;34.83;8.65;;;;;;;11.08;56.18;103284.72;6091532;23;99522;-74
2021/12/17 03:00:56;;;;;;;27.40;8.48;;;;;;;11.33;55.62;103289.16;6091255;23;96612;-76
2021/12/17 03:03:26;;;;;;;31.08;8.90;;;;;;;11.42;54.74;103278.56;6106231;23;96767;-76
2021/12/17 03:05:53;;;;;;;33.78;8.27;;;;;;;11.01;55.61;103270.56;6109747;23;98044;-75
2021/12/17 03:08:20;;;;;;;37.03;8.68;;;;;;;10.97;55.88;103274.06;6110829;23;97768;-75
2021/12/17 03:10:50;;;;;;;41.33;8.40;;;;;;;10.87;55.46;103268.75;6106313;23;96621;-76
2021/12/17 03:13:18;;;;;;;37.33;9.77;;;;;;;10.82;56.38;103273.16;6106415;23;96941;-75
2021/12/17 03:15:50;;;;;;;34.40;8.52;;;;;;;10.55;57.17;103277.47;6104813;23;98930;-76
2021/12/17 03:23:45;;;;;;;41.15;9.48;;;;;;;10.74;56.71;103273.13;6094399;23;97078;-77
2021/12/17 03:26:16;;;;;;;32.22;9.40;;;;;;;10.72;56.31;103281.06;6092554;23;99178;-74
2021/12/17 03:28:44;;;;;;;24.70;8.15;;;;;;;11.19;55.63;103270.63;6093117;23;98870;-78
2021/12/17 03:31:12;;;;;;;27.20;8.73;;;;;;;10.40;57.58;103258.88;6092722;23;96694;-76
2021/12/17 03:33:42;;;;;;;42.97;11.25;;;;;;;10.79;57.23;103256.41;6092479;23;96960;-76
2021/12/17 03:36:11;;;;;;;31.20;9.07;;;;;;;10.68;56.57;103258.13;6091596;23;98908;-76
2021/12/17 03:38:39;;;;;;;32.58;8.70;;;;;;;10.41;58.19;103260.66;6093414;23;98917;-75
2021/12/17 03:41:19;;;;;;;34.47;8.95;;;;;;;10.37;57.50;103253.59;6107091;23;96603;-76
2021/12/17 03:43:50;;;;;;;32.15;9.63;;;;;;;10.52;57.42;103256.28;6098331;23;97297;-75
2021/12/17 03:46:18;;;;;;;39.42;9.63;;;;;;;10.66;57.32;103254.59;6119186;23;98031;-76
2021/12/17 03:48:45;;;;;;;33.25;8.25;;;;;;;10.22;57.87;103248.22;6115911;23;97654;-75
2021/12/17 03:51:14;;;;;;;32.63;8.88;;;;;;;10.52;57.76;103250.09;6119256;23;96458;-76
2021/12/17 03:53:43;;;;;;;29.30;8.48;;;;;;;10.47;57.69;103242.16;6116650;23;96654;-77
2021/12/17 03:56:10;;;;;;;27.50;8.85;;;;;;;10.65;57.49;103244.00;6117796;23;97809;-76
2021/12/17 03:58:36;;;;;;;40.97;9.23;;;;;;;10.47;56.56;103252.75;6105759;23;97885;-75
2021/12/17 04:01:05;;;;;;;33.33;10.00;;;;;;;10.37;57.77;103243.88;6106394;23;96924;-77
2021/12/17 04:03:31;;;;;;;32.17;9.07;;;;;;;10.65;56.85;103247.53;6093029;23;97726;-77
2021/12/17 04:05:58;;;;;;;38.42;9.95;;;;;;;10.68;56.92;103244.03;6092121;23;98903;-76
2021/12/17 04:08:25;;;;;;;28.27;9.18;;;;;;;10.86;56.35;103246.72;6092393;23;98910;-77
2021/12/17 04:10:54;;;;;;;32.35;9.13;;;;;;;10.38;57.02;103244.75;6092671;23;96754;-77
2021/12/17 04:13:31;;;;;;;29.90;8.93;;;;;;;10.82;56.88;103250.25;6093212;23;97058;-77
2021/12/17 04:16:00;;;;;;;33.85;9.52;;;;;;;11.08;55.28;103242.38;6091750;23;99219;-76
2021/12/17 04:18:29;;;;;;;32.20;8.70;;;;;;;11.37;54.75;103240.63;6092929;23;98076;-76
2021/12/17 04:20:56;;;;;;;34.80;9.82;;;;;;;10.73;55.91;103247.56;6092262;23;97041;-75
2021/12/17 04:23:23;;;;;;;43.63;10.13;;;;;;;11.04;56.08;103256.47;6092475;23;96811;-76
2021/12/17 04:25:50;;;;;;;29.23;9.43;;;;;;;11.37;54.27;103259.16;6092110;23;98859;-76
2021/12/17 04:28:16;;;;;;;32.53;8.82;;;;;;;11.15;55.23;103265.31;6095800;23;99093;-76
2021/12/17 04:30:44;;;;;;;33.47;9.13;;;;;;;10.84;55.63;103269.63;6097003;23;96900;-77
2021/12/17 04:33:12;;;;;;;32.75;9.70;;;;;;;11.25;55.38;103268.84;6095422;23;96930;-78
2021/12/17 04:35:40;;;;;;;32.13;8.60;;;;;;;11.18;55.56;103266.19;6098966;23;98877;-76
2021/12/17 04:38:08;;;;;;;36.97;9.10;;;;;;;11.32;54.83;103266.22;6098064;23;98805;-77
2021/12/17 04:40:36;;;;;;;32.03;9.13;;;;;;;11.50;54.29;103253.00;6098740;23;96638;-76
2021/12/17 04:43:13;;;;;;;38.50;10.45;;;;;;;11.03;55.24;103249.41;6095009;23;96791;-77
2021/12/17 04:45:45;;;;;;;32.90;9.32;;;;;;;10.98;55.94;103252.03;6092985;23;99199;-77
2021/12/17 04:59:12;;;;;;;35.80;9.13;;;;;;;11.24;54.74;103270.59;6094431;23;97085;-77
2021/12/17 05:01:38;;;;;;;36.08;9.05;;;;;;;10.92;55.26;103272.31;6112211;23;97111;-77
2021/12/17 05:04:07;;;;;;;34.13;8.80;;;;;;;10.78;55.34;103267.84;6108191;23;96695;-76
2021/12/17 05:06:35;;;;;;;27.58;8.60;;;;;;;10.82;55.41;103268.75;6109051;23;98173;-75
2021/12/17 05:09:08;;;;;;;31.42;9.15;;;;;;;10.78;56.55;103273.13;6108643;23;100126;-77
2021/12/17 05:19:48;;;;;;;43.42;10.82;;;;;;;9.99;58.18;103270.03;6100221;23;97082;-77
2021/12/17 05:22:18;;;;;;;36.60;9.60;;;;;;;10.30;57.43;103268.53;6102707;23;96810;-76
2021/12/17 05:24:44;;;;;;;33.95;9.20;;;;;;;10.50;57.73;103267.75;6103480;23;96640;-76
2021/12/17 05:27:10;;;;;;;36.75;11.52;;;;;;;10.19;57.77;103266.69;6102545;23;97760;-76
2021/12/17 05:29:37;;;;;;;42.40;9.85;;;;;;;10.20;58.28;103265.81;6093971;23;98822;-76
2021/12/17 05:32:05;;;;;;;38.55;9.98;;;;;;;10.15;57.29;103268.41;6092812;23;96625;-76
2021/12/17 05:34:31;;;;;;;36.70;9.07;;;;;;;10.37;57.97;103266.81;6093466;23;97179;-75
2021/12/17 05:36:58;;;;;;;38.75;8.98;;;;;;;10.16;58.41;103274.56;6092239;23;97830;-75
2021/12/17 05:39:25;;;;;;;31.08;9.07;;;;;;;9.92;57.77;103280.53;6091612;23;99106;-75
2021/12/17 05:41:52;;;;;;;32.28;8.73;;;;;;;9.99;58.60;103274.44;6091652;23;96744;-76
2021/12/17 05:44:20;;;;;;;40.58;9.05;;;;;;;9.81;58.85;103276.94;6091741;23;97387;-75
2021/12/17 05:46:49;;;;;;;28.75;8.93;;;;;;;9.93;59.07;103277.94;6091468;23;99003;-76
2021/12/17 05:49:17;;;;;;;38.08;9.18;;;;;;;10.13;58.42;103271.91;6092124;23;97723;-76
2021/12/17 05:51:43;;;;;;;40.92;10.07;;;;;;;10.31;57.57;103282.59;6092282;23;96553;-77
2021/12/17 05:54:10;;;;;;;34.08;9.27;;;;;;;10.72;56.72;103275.75;6092164;23;97115;-76
2021/12/17 05:56:38;;;;;;;34.88;9.43;;;;;;;11.10;55.13;103285.56;6091840;23;99236;-77
2021/12/17 05:59:05;;;;;;;39.20;8.82;;;;;;;11.12;54.68;103273.25;6093353;23;101792;-76
2021/12/17 06:01:32;;;;;;;33.72;9.05;;;;;;;10.61;56.45;103280.13;6092090;23;96640;-77
2021/12/17 06:04:01;;;;;;;26.65;8.25;;;;;;;10.67;56.00;103276.63;6093826;23;97283;-78
2021/12/17 06:06:29;;;;;;;25.08;7.40;;;;;;;10.58;56.31;103281.84;6091554;23;99131;-76
2021/12/17 06:08:56;;;;;;;27.05;9.77;;;;;;;10.62;56.60;103271.31;6092264;23;99002;-76
2021/12/17 06:11:23;;;;;;;30.02;9.18;;;;;;;10.75;56.32;103278.44;6091879;23;96625;-76
2021/12/17 06:13:50;;;;;;;28.35;9.57;;;;;;;10.95;55.43;103286.44;6091808;23;96811;-76
2021/12/17 06:16:17;;;;;;;31.67;10.00;;;;;;;11.05;54.95;103290.88;6091343;23;98935;-77
2021/12/17 06:18:43;;;;;;;32.92;9.35;;;;;;;10.47;56.46;103294.16;6091578;23;98561;-75
2021/12/17 06:21:10;;;;;;;26.40;8.23;;;;;;;10.46;57.16;103292.38;6091828;23;96786;-76
2021/12/17 06:23:37;;;;;;;32.53;9.40;;;;;;;10.59;57.36;103295.09;6094965;23;96770;-77
2021/12/17 06:26:05;;;;;;;29.85;8.98;;;;;;;10.85;56.48;103296.97;6091235;23;98935;-76
2021/12/17 06:28:32;;;;;;;30.75;9.32;;;;;;;11.00;55.10;103294.38;6092028;23;98821;-77
2021/12/17 06:31:00;;;;;;;31.77;8.77;;;;;;;11.18;55.11;103300.59;6091443;23;97014;-76
2021/12/17 06:33:28;;;;;;;33.50;9.05;;;;;;;11.08;54.95;103306.75;6094149;23;96759;-76
2021/12/17 06:35:56;;;;;;;28.42;8.57;;;;;;;11.36;54.42;103310.34;6091049;23;98943;-77
2021/12/17 06:38:24;;;;;;;25.45;7.75;;;;;;;10.80;55.77;103318.13;6091475;23;98754;-75
2021/12/17 06:40:53;;;;;;;31.48;7.90;;;;;;;10.78;55.48;103315.44;6091330;23;96704;-77
2021/12/17 06:43:23;;;;;;;27.02;7.45;;;;;;;10.87;55.09;103319.03;6107277;23;96819;-76
2021/12/17 06:45:54;;;;;;;31.30;8.50;;;;;;;10.97;55.00;103313.75;6112440;23;98982;-75
2021/12/17 06:48:32;;;;;;;30.27;7.35;;;;;;;11.08;54.51;103321.75;6106055;23;99210;-76
2021/12/17 06:59:34;;;;;;;28.55;7.43;;;;;;;10.62;56.69;103313.63;6091569;23;97073;-76
2021/12/17 07:11:37;;;;;;;25.33;7.47;;;;;;;10.43;56.39;103309.13;6092251;23;98570;-78
2021/12/17 07:17:21;;;;;;;31.20;7.30;;;;;;;10.56;55.63;103304.78;6092730;23;96747;-76
2021/12/17 07:22:45;;;;;;;29.20;8.18;;;;;;;10.52;56.08;103325.03;6089790;23;98435;-80
2021/12/17 07:28:29;;;;;;;28.45;7.25;;;;;;;10.50;57.19;103321.47;6091418;23;96549;-76
2021/12/17 07:33:39;;;;;;;37.03;8.40;;;;;;;10.11;58.60;103345.00;6084777;23;97291;-76
2021/12/17 07:36:41;;;;;;;37.65;8.13;;;;;;;10.42;57.60;103338.19;6091767;23;97053;-78
2021/12/17 07:46:09;;;;;;;28.27;7.72;;;;;;;9.57;60.31;103328.69;6088937;23;96990;-78
2021/12/17 07:59:01;;;;;;;34.67;7.70;;;;;;;10.78;56.28;103301.34;5085590;27;98614;-77
2021/12/17 08:01:27;;;;;;;27.27;7.80;;;;;;;11.21;54.88;103298.84;5067640;27;98765;-78
2021/12/17 08:03:54;;;;;;;33.67;7.90;;;;;;;10.94;55.34;103300.53;5068303;27;99225;-77
2021/12/17 08:06:24;;;;;;;35.95;8.15;;;;;;;10.87;54.88;103285.53;5065642;27;100571;-76
2021/12/17 08:08:51;;;;;;;29.08;7.47;;;;;;;11.03;54.89;103287.31;5065818;27;98668;-78
2021/12/17 08:11:22;;;;;;;32.13;7.63;;;;;;;11.11;54.79;103290.00;5080971;27;96849;-76
2021/12/17 08:13:53;;;;;;;34.90;7.50;;;;;;;10.67;55.88;103296.03;5088485;27;98112;-77
2021/12/17 08:16:34;;;;;;;34.00;7.78;;;;;;;10.89;55.83;103296.13;5073361;27;97836;-77
2021/12/17 08:23:19;;;;;;;;;;;;;;;;;;;;;
2021/12/17 08:25:13;;;;;;;32.97;7.78;;;;;;;10.40;57.23;103298.53;5065297;27;96564;-77
2021/12/17 08:33:21;;;;;;;26.92;7.80;;;;;;;11.22;54.92;103293.56;5057736;27;96949;-76
2021/12/17 08:35:58;;;;;;;;;;;;;;;;;;;;;
2021/12/17 08:38:30;;;;;;;36.10;7.75;;;;;;;10.71;56.38;103305.72;5062616;27;127036;-77
2021/12/17 08:41:02;;;;;;;34.85;7.97;;;;;;;10.11;57.95;103313.28;5068367;27;99339;-76
2021/12/17 08:43:36;;;;;;;44.20;9.43;;;;;;;10.01;58.42;103309.69;5066896;27;97409;-78
2021/12/17 08:46:07;;;;;;;39.85;8.90;;;;;;;10.42;58.33;103307.34;5064270;27;98927;-75
2021/12/17 08:57:06;;;;;;;31.23;7.57;;;;;;;10.12;58.68;103302.72;5021207;27;98852;-77
2021/12/17 08:59:39;;;;;;;21.67;6.45;;;;;;;10.46;57.13;103306.47;5020582;27;99263;-79
2021/12/17 09:02:38;;;;;;;;;;;;;;;;;;;;;
2021/12/17 09:05:18;;;;;;;;;;;;;;;;;;;;;
2021/12/17 09:08:08;;;;;;;;;;;;;;;;;;;;;
2021/12/17 09:10:40;;;;;;;23.83;6.22;;;;;;;9.67;59.20;103328.75;5009306;28;127774;-78
2021/12/17 09:13:09;;;;;;;28.02;5.78;;;;;;;9.66;59.50;103330.50;5014269;28;98784;-79
2021/12/17 09:15:37;;;;;;;25.05;6.10;;;;;;;10.27;58.43;103328.41;5014731;28;96859;-78
2021/12/17 09:18:06;;;;;;;16.60;5.55;;;;;;;9.94;58.03;103324.59;5011396;28;98902;-77
2021/12/17 09:20:37;;;;;;;29.60;6.18;;;;;;;9.97;58.51;103329.94;5012663;28;99885;-77
2021/12/17 09:23:04;;;;;;;17.50;5.05;;;;;;;10.31;57.98;103340.75;5012449;28;96915;-77
2021/12/17 09:25:43;;;;;;;;;;;;;;;;;;;;;
2021/12/17 09:28:13;;;;;;;17.20;5.20;;;;;;;10.82;56.28;103342.81;5007873;28;128064;-78
2021/12/17 09:30:50;;;;;;;20.15;5.38;;;;;;;10.72;55.71;103347.16;5018622;28;98918;-77
2021/12/17 09:33:49;;;;;;;;;;;;;;;;;;;;;
2021/12/17 09:36:31;;;;;;;33.25;5.80;;;;;;;10.75;56.77;103341.03;5012454;28;111519;-78
2021/12/17 09:39:14;;;;;;;;;;;;;;;;;;;;;
2021/12/17 09:41:53;;;;;;;23.40;5.93;;;;;;;10.62;56.26;103340.06;5005036;28;127237;-77
2021/12/17 09:44:48;;;;;;;;;;;;;;;;;;;;;
2021/12/17 09:47:16;;;;;;;21.17;5.97;;;;;;;10.72;55.92;103343.63;5006938;28;111406;-77
2021/12/17 09:49:45;;;;;;;28.98;6.65;;;;;;;10.68;56.76;103348.03;5012420;28;99284;-77
2021/12/17 09:52:31;;;;;;;;;;;;;;;;;;;;;
2021/12/17 09:54:59;;;;;;;28.42;6.00;;;;;;;11.04;55.18;103349.06;5005908;28;114203;-77
2021/12/17 09:57:37;;;;;;;;;;;;;;;;;;;;;
2021/12/17 10:00:10;;;;;;;30.50;6.10;;;;;;;11.19;53.61;103346.47;5012503;28;127326;-76
2021/12/17 10:06:25;;;;;;;20.85;5.47;;;;;;;10.22;57.93;103351.28;4904874;28;97231;-77
2021/12/17 10:08:58;;;;;;;19.08;5.55;;;;;;;10.49;57.00;103346.16;4999925;28;97989;-79
2021/12/17 10:11:29;;;;;;;19.33;4.78;;;;;;;10.11;57.63;103352.91;5015364;28;98187;-76
2021/12/17 10:14:24;;;;;;;16.80;4.75;;;;;;;10.08;57.96;103352.88;5014744;28;97729;-78
2021/12/17 10:16:51;;;;;;;22.98;4.57;;;;;;;10.47;57.75;103352.31;5033837;28;97469;-77
2021/12/17 10:25:20;;;;;;;17.42;4.80;;;;;;;10.65;55.75;103353.28;5200563;22;98252;-77
2021/12/17 10:27:47;;;;;;;25.02;5.82;;;;;;;10.69;55.27;103355.09;5010188;28;96832;-76
2021/12/17 10:30:17;;;;;;;17.13;5.35;;;;;;;11.05;55.61;103348.19;5009760;28;97554;-77
2021/12/17 10:32:48;;;;;;;20.15;5.53;;;;;;;11.38;54.37;103352.69;5009762;28;99554;-78
2021/12/17 10:35:19;;;;;;;28.20;5.63;;;;;;;11.50;54.36;103348.31;5008379;28;97981;-75
2021/12/17 10:37:56;;;;;;;18.48;5.30;;;;;;;11.18;54.78;103352.66;5007861;28;98602;-77
2021/12/17 10:40:25;;;;;;;;;;;;;;;11.33;55.61;103350.06;5014136;28;96867;-77
2021/12/17 10:43:00;;;;;;;26.40;5.47;;;;;;;11.27;54.82;103334.16;5011674;28;98951;-77
2021/12/17 10:45:31;;;;;;;21.63;4.70;;;;;;;11.59;53.31;103343.03;5013365;28;99745;-78
2021/12/17 10:52:13;;;;;;;24.00;5.15;;;;;;;11.65;53.46;103343.94;4910525;28;97082;-77
2021/12/17 10:54:41;;;;;;;23.13;4.70;;;;;;;11.71;52.31;103344.81;5002605;28;99357;-77
2021/12/17 10:57:10;;;;;;;25.48;5.78;;;;;;;11.51;51.61;103339.50;5012787;28;97656;-77
2021/12/17 10:59:40;;;;;;;13.60;4.22;;;;;;;10.72;54.95;103333.94;5016504;28;97476;-77
2021/12/17 11:02:11;;;;;;;19.80;5.28;;;;;;;10.77;55.40;103337.47;5014055;28;98148;-76
2021/12/17 11:25:24;;;;;;;;;;;;;;;;;;;;;
2021/12/17 11:28:27;;;;;;;19.02;5.13;;;;;;;11.70;52.36;103345.69;4926009;28;127364;-79
2021/12/17 11:31:09;;;;;;;21.50;4.63;;;;;;;11.88;51.60;103328.97;4946334;28;99083;-78
2021/12/17 11:33:50;;;;;;;16.38;4.50;;;;;;;11.69;52.21;103328.03;4991969;28;96944;-79
2021/12/17 11:36:51;;;;;;;;;;;;;;;;;;;;;
2021/12/17 11:40:13;;;;;;;;;;;;;;;;;;;;;
2021/12/17 11:44:08;;;;;;;19.67;4.75;;;;;;;11.98;51.05;103334.25;4859415;28;127071;-78
2021/12/17 11:46:46;;;;;;;18.85;4.13;;;;;;;12.11;50.58;103353.69;4824696;28;97353;-76
2021/12/17 11:49:15;;;;;;;17.77;4.65;;;;;;;12.23;50.52;103351.03;4993304;28;96916;-76
2021/12/17 11:51:55;;;;;;;19.85;3.95;;;;;;;11.81;50.25;103351.94;4997426;28;101467;-78
2021/12/17 11:54:30;;;;;;;19.27;4.47;;;;;;;11.59;51.87;103348.34;4988391;28;98036;-78
2021/12/17 11:57:06;;;;;;;19.60;4.38;;;;;;;11.67;52.15;103344.81;4998177;28;96812;-76
2021/12/17 11:59:36;;;;;;;21.65;4.32;;;;;;;11.93;51.05;103344.00;4998563;28;96780;-76
2021/12/17 12:02:11;;;;;;;22.10;4.60;;;;;;;12.23;50.35;103343.06;4991541;28;100012;-77
2021/12/17 12:04:41;;;;;;;19.23;4.70;;;;;;;12.31;49.86;103351.03;4995326;28;98261;-76
2021/12/17 12:07:20;;;;;;;;;;;;;;;;;;;;;
2021/12/17 12:09:57;;;;;;;19.25;3.80;;;;;;;12.50;48.91;103341.25;4987890;28;109471;-77
2021/12/17 12:13:25;;;;;;;;;;;;;;;;;;;;;
2021/12/17 12:16:22;;;;;;;13.25;3.78;;;;;;;11.51;50.33;103344.78;4965519;28;128587;-79
2021/12/17 12:19:30;;;;;;;21.77;4.43;;;;;;;11.62;50.97;103357.19;4992904;28;97390;-77
2021/12/17 12:22:44;;;;;;;;;;;;;;;;;;;;;
2021/12/17 12:26:11;;;;;;;18.48;4.78;;;;;;;12.03;49.23;103339.56;4975247;28;126992;-78
2021/12/17 12:29:05;;;;;;;23.65;4.80;;;;;;;12.11;49.46;103332.47;4994405;28;98991;-79
2021/12/17 12:31:50;;;;;;;20.30;3.80;;;;;;;12.35;48.79;103339.50;4996164;28;96810;-77
2021/12/17 12:34:22;;;;;;;24.73;4.10;;;;;;;12.63;47.70;103338.56;4986922;28;98509;-78
2021/12/17 12:36:51;;;;;;;16.00;4.03;;;;;;;12.37;47.95;103351.88;4991245;28;99278;-77
2021/12/17 12:39:20;;;;;;;17.73;3.67;;;;;;;12.16;48.82;103351.03;4998580;28;98794;-76
2021/12/17 12:41:49;;;;;;;18.00;3.92;;;;;;;11.70;50.42;103350.09;4991820;28;97326;-77
2021/12/17 12:44:19;;;;;;;15.95;3.55;;;;;;;12.02;49.61;103347.50;4991564;28;96981;-76
2021/12/17 12:46:54;;;;;;;25.45;3.97;;;;;;;12.08;48.69;103343.06;4997984;28;98894;-76
2021/12/17 12:49:43;;;;;;;20.23;3.95;;;;;;;12.12;49.05;103342.22;4993845;28;99008;-77
2021/12/17 12:52:24;;;;;;;21.33;4.45;;;;;;;12.32;48.26;103336.88;4991776;28;97396;-76
2021/12/17 12:54:53;;;;;;;17.33;3.30;;;;;;;12.46;47.93;103337.75;4992872;28;96861;-76
2021/12/17 12:57:29;;;;;;;20.92;3.50;;;;;;;12.24;49.01;103331.59;4995812;28;97853;-77
2021/12/17 13:00:01;;;;;;;;;;;;;;;12.19;48.82;103330.72;5001400;28;98888;-77
2021/12/17 13:02:49;;;;;;;;;;;;;;;;;;;;;
2021/12/17 13:05:28;;;;;;;13.65;3.85;;;;;;;12.35;47.97;103320.94;4992370;28;112980;-78
2021/12/17 13:08:07;;;;;;;;;;;;;;;;;;;;;
2021/12/17 13:10:54;;;;;;;;;;;;;;;;;;;;;
2021/12/17 13:14:04;;;;;;;;;;;;;;;12.11;49.40;103318.34;4994657;28;111149;-77
2021/12/17 13:16:43;;;;;;;19.33;4.53;;;;;;;12.00;49.45;103328.97;4973078;28;99089;-77
2021/12/17 13:22:13;;;;;;;;;;;;;;;;;;;;;
2021/12/17 13:25:00;;;;;;;17.52;4.70;;;;;;;12.52;48.09;103344.78;4978902;28;114415;-78
2021/12/17 13:27:35;;;;;;;13.75;2.95;;;;;;;12.51;48.19;103340.38;4990112;28;96762;-77
2021/12/17 13:30:09;;;;;;;15.55;3.65;;;;;;;12.64;47.90;103334.16;4991890;28;99155;-78
2021/12/17 13:32:43;;;;;;;17.98;3.58;;;;;;;12.15;48.85;103328.06;4990016;28;99891;-77
2021/12/17 13:35:17;;;;;;;14.60;3.17;;;;;;;12.66;48.10;103321.78;4990376;28;97219;-76
2021/12/17 13:37:44;;;;;;;15.45;3.20;;;;;;;12.58;47.51;103320.91;5015010;27;96843;-78
2021/12/17 13:40:13;;;;;;;18.45;3.75;;;;;;;12.62;47.70;103326.19;5007999;28;98951;-77
2021/12/17 13:43:07;;;;;;;;;;;;;;;;;;;;;
2021/12/17 13:46:19;;;;;;;;;;;;;;;;;;;;;
2021/12/17 13:49:37;;;;;;;;;;;;;;;;;;;;;
2021/12/17 13:52:34;;;;;;;;;;;;;;;;;;;;;
2021/12/17 13:55:12;;;;;;;14.70;4.00;;;;;;;12.42;48.59;103316.50;4991206;28;128462;-77
2021/12/17 13:57:46;;;;;;;21.58;3.55;;;;;;;12.42;48.05;103328.00;4992780;28;96793;-78
2021/12/17 14:00:38;;;;;;;17.38;3.58;;;;;;;11.35;50.35;103336.81;4998667;28;97446;-77
2021/12/17 14:03:26;;;;;;;13.90;3.53;;;;;;;11.07;51.94;103352.63;4993885;28;97806;-78
2021/12/17 14:06:09;;;;;;;20.95;3.58;;;;;;;11.02;52.68;103343.78;4994645;28;99182;-78
2021/12/17 14:08:44;;;;;;;14.93;4.07;;;;;;;11.32;51.78;103332.41;4998120;28;97332;-78
2021/12/17 14:11:23;;;;;;;23.27;3.72;;;;;;;11.80;50.64;103346.63;4990933;28;96970;-77
2021/12/17 14:13:51;;;;;;;17.75;3.40;;;;;;;11.72;50.09;103351.00;4989545;28;100527;-75
2021/12/17 14:16:41;;;;;;;15.48;3.67;;;;;;;11.76;50.27;103355.44;4992332;28;97758;-76
2021/12/17 14:19:11;;;;;;;17.52;3.63;;;;;;;11.78;50.87;103358.97;4992923;28;97020;-77
2021/12/17 14:21:38;;;;;;;17.83;4.40;;;;;;;11.38;51.51;103347.41;4993626;28;96800;-78
2021/12/17 14:24:09;;;;;;;15.57;3.85;;;;;;;11.53;52.04;103353.63;4989718;28;100085;-78
2021/12/17 14:26:52;;;;;;;15.85;3.63;;;;;;;11.52;51.58;103358.91;4991690;28;98867;-78
2021/12/17 14:29:20;;;;;;;15.50;3.80;;;;;;;11.47;51.90;103358.91;4994311;28;97546;-78
2021/12/17 14:32:04;;;;;;;24.45;4.80;;;;;;;11.39;52.08;103354.47;4992366;28;96925;-78
2021/12/17 14:35:12;;;;;;;22.95;4.20;;;;;;;12.04;51.21;103354.56;4990657;28;98958;-78
2021/12/17 14:44:32;;;;;;;;;;;;;;;;;;;;;
2021/12/17 14:47:16;;;;;;;12.65;3.45;;;;;;;12.25;49.41;103359.88;4995517;28;99733;-77
2021/12/17 15:01:34;;;;;;;17.10;3.95;;;;;;;10.62;52.77;103363.00;4990788;28;97738;-78
2021/12/17 15:04:11;;;;;;;;;;;;;;;;;;;;;
2021/12/17 15:06:39;;;;;;;17.30;3.30;;;;;;;10.64;52.37;103356.81;4990649;28;112976;-77
2021/12/17 15:09:08;;;;;;;17.98;3.17;;;;;;;10.77;52.00;103355.09;4993519;28;100760;-77
2021/12/17 15:11:41;;;;;;;14.50;3.30;;;;;;;10.72;52.85;103352.44;4989927;28;98845;-77
2021/12/17 15:14:21;;;;;;;;;;;;;;;;;;;;;
2021/12/17 15:17:02;;;;;;;14.38;2.90;;;;;;;11.65;50.12;103368.66;4988634;28;113036;-79
2021/12/17 15:19:35;;;;;;;15.93;3.28;;;;;;;11.58;50.68;103359.81;4987170;28;98292;-78
2021/12/17 15:22:19;;;;;;;19.92;3.50;;;;;;;11.47;50.39;103366.84;4994312;28;99602;-78
2021/12/17 15:24:47;;;;;;;22.02;3.85;;;;;;;11.85;50.22;103363.41;4990193;28;98135;-78
2021/12/17 15:27:14;;;;;;;17.27;3.65;;;;;;;11.61;50.47;103363.34;4995391;28;97110;-76
2021/12/17 15:29:42;;;;;;;15.02;3.30;;;;;;;12.01;49.81;103357.25;4996089;28;99973;-76
2021/12/17 15:32:09;;;;;;;17.25;3.65;;;;;;;12.12;49.22;103355.47;4989492;28;98831;-78
2021/12/17 15:41:16;;;;;;;14.35;2.78;;;;;;;12.26;48.89;103363.41;4895092;28;100704;-77
2021/12/17 15:43:43;;;;;;;16.52;4.20;;;;;;;12.30;48.83;103359.84;4982675;28;98918;-77
2021/12/17 15:46:10;;;;;;;12.45;2.90;;;;;;;12.23;49.05;103358.97;4996577;28;96909;-78
2021/12/17 15:48:41;;;;;;;16.40;3.17;;;;;;;12.23;49.08;103358.97;4990985;28;97694;-78
2021/12/17 15:51:07;;;;;;;13.48;3.03;;;;;;;12.30;48.38;103360.75;4997482;28;100521;-77
2021/12/17 15:53:34;;;;;;;12.60;3.08;;;;;;;12.33;48.68;103366.06;4996676;28;98792;-79
2021/12/17 15:56:03;;;;;;;16.42;3.35;;;;;;;12.15;49.39;103368.69;4994166;28;96800;-76
2021/12/17 15:58:31;;;;;;;16.17;3.50;;;;;;;12.30;49.41;103360.75;4993959;28;97200;-78
2021/12/17 16:00:57;;;;;;;29.55;7.72;;;;;;;12.27;49.21;103365.19;4989825;28;97917;-78
2021/12/17 16:03:31;;;;;;;19.85;3.58;;;;;;;12.22;49.45;103375.75;4993971;28;97951;-77
2021/12/17 16:05:58;;;;;;;13.23;3.67;;;;;;;11.62;50.51;103355.38;4989920;28;96779;-77
2021/12/17 16:08:24;;;;;;;18.15;3.08;;;;;;;12.06;50.06;103350.16;4995088;28;96903;-76